createdAt,value
2023-03-31T00:00:34.634Z,5.9
2023-03-31T00:05:34.644Z,5.7
2023-03-31T00:10:34.641Z,5.4
2023-03-31T00:15:34.651Z,5.1
2023-03-31T00:20:34.657Z,4.5
2023-03-31T00:25:34.663Z,5.2
2023-03-31T00:30:34.677Z,6.8
2023-03-31T00:35:34.679Z,5.1
2023-03-31T00:40:34.656Z,6.7
2023-03-31T00:45:34.681Z,5.3
2023-03-31T00:50:34.657Z,7.0
2023-03-31T00:55:34.656Z,5.8
2023-03-31T01:00:34.660Z,10.4
2023-03-31T01:05:34.657Z,7.2
2023-03-31T01:10:34.667Z,5.8
2023-03-31T01:15:34.659Z,4.3
2023-03-31T01:20:34.669Z,5.6
2023-03-31T01:25:34.679Z,8.2
2023-03-31T01:30:34.663Z,5.8
2023-03-31T01:35:34.676Z,6.6
2023-03-31T01:40:34.702Z,5.4
2023-03-31T01:45:34.669Z,7.5
2023-03-31T01:50:34.672Z,6.2
2023-03-31T01:55:34.680Z,5.3
2023-03-31T02:00:34.678Z,6.4
2023-03-31T02:05:34.688Z,7.2
2023-03-31T02:10:34.682Z,6.1
2023-03-31T02:15:34.685Z,9.4
2023-03-31T02:20:34.681Z,6.4
2023-03-31T02:25:34.694Z,9.5
2023-03-31T02:30:34.685Z,10.0
2023-03-31T02:40:34.689Z,8.0
2023-03-31T02:45:34.771Z,12.1
2023-03-31T03:00:34.702Z,8.5
2023-03-31T03:05:34.742Z,9.4
2023-03-31T03:10:48.388Z,8.3
2023-03-31T03:25:34.711Z,10.2
2023-03-31T03:30:48.111Z,9.9
2023-03-31T03:35:48.118Z,9.4
2023-03-31T03:40:34.736Z,8.8
2023-03-31T03:45:48.077Z,7.9
2023-03-31T03:50:34.723Z,10.5
2023-03-31T03:55:34.720Z,6.4
2023-03-31T04:00:34.708Z,10.1
2023-03-31T04:05:34.747Z,10.5
2023-03-31T04:10:34.725Z,11.3
2023-03-31T04:15:34.724Z,10.3
2023-03-31T04:20:34.771Z,8.4
2023-03-31T04:25:34.743Z,9.8
2023-03-31T04:30:34.724Z,8.4
2023-03-31T04:35:34.737Z,7.6
2023-03-31T04:40:34.738Z,8.4
2023-03-31T04:45:48.120Z,5.7
2023-03-31T04:50:34.730Z,7.7
2023-03-31T04:55:34.741Z,5.0
2023-03-31T05:00:34.732Z,7.4
2023-03-31T05:05:34.771Z,7.7
2023-03-31T05:10:35.083Z,6.2
2023-03-31T05:20:34.776Z,7.5
2023-03-31T05:25:34.758Z,5.1
2023-03-31T05:30:48.423Z,7.3
2023-03-31T05:35:34.789Z,7.7
2023-03-31T05:40:35.101Z,7.1
2023-03-31T05:45:34.778Z,8.7
2023-03-31T05:50:34.772Z,6.5
2023-03-31T05:55:34.756Z,3.7
2023-03-31T06:00:34.760Z,3.4
2023-03-31T06:05:34.764Z,6.6
2023-03-31T06:10:48.128Z,6.0
2023-03-31T06:15:34.771Z,3.0
2023-03-31T06:20:34.767Z,4.3
2023-03-31T06:25:47.896Z,4.4
2023-03-31T06:30:48.139Z,4.7
2023-03-31T06:35:34.792Z,7.0
2023-03-31T06:40:34.785Z,5.1
2023-03-31T06:45:34.778Z,5.2
2023-03-31T06:50:34.783Z,5.0
2023-03-31T07:05:34.812Z,4.2
2023-03-31T07:15:34.796Z,7.7
2023-03-31T07:20:34.794Z,5.6
2023-03-31T07:25:34.784Z,6.2
2023-03-31T07:30:34.815Z,10.6
2023-03-31T07:35:34.874Z,8.0
2023-03-31T07:40:34.805Z,5.0
2023-03-31T07:50:34.804Z,8.5
2023-03-31T07:55:35.176Z,6.3
2023-03-31T08:00:34.806Z,12.3
2023-03-31T08:15:34.808Z,5.9
2023-03-31T08:20:34.815Z,5.6
2023-03-31T08:25:34.819Z,4.2
2023-03-31T08:30:34.816Z,8.4
2023-03-31T08:35:34.847Z,10.3
2023-03-31T08:40:34.823Z,8.2
2023-03-31T08:45:34.874Z,9.8
2023-03-31T08:50:34.823Z,8.6
2023-03-31T08:55:48.181Z,8.9
2023-03-31T09:05:34.825Z,11.8
2023-03-31T09:10:34.840Z,13.1
2023-03-31T09:15:34.865Z,11.0
2023-03-31T09:20:34.883Z,10.4
2023-03-31T09:25:34.879Z,8.9
2023-03-31T09:30:34.845Z,11.6
2023-03-31T09:35:34.855Z,8.9
2023-03-31T09:40:34.848Z,12.7
2023-03-31T09:45:34.851Z,10.0
2023-03-31T09:50:34.965Z,10.4
2023-03-31T09:55:40.020Z,9.9
2023-03-31T10:00:34.893Z,10.0
2023-03-31T10:05:34.862Z,13.3
2023-03-31T10:10:35.010Z,11.5
2023-03-31T10:15:34.919Z,10.8
2023-03-31T10:20:34.944Z,12.2
2023-03-31T10:25:34.871Z,10.4
2023-03-31T10:30:34.930Z,7.4
2023-03-31T10:35:34.926Z,8.7
2023-03-31T10:40:35.000Z,7.3
2023-03-31T10:45:38.292Z,7.5
2023-03-31T10:50:34.878Z,8.7
2023-03-31T10:55:34.881Z,9.1
2023-03-31T11:00:34.879Z,4.8
2023-03-31T11:05:34.884Z,6.7
2023-03-31T11:10:34.926Z,8.4
2023-03-31T11:15:34.964Z,6.9
2023-03-31T11:20:34.907Z,8.1
2023-03-31T11:25:34.903Z,9.2
2023-03-31T11:30:34.903Z,7.1
2023-03-31T11:35:34.933Z,7.9
2023-03-31T11:40:34.900Z,9.4
2023-03-31T11:45:34.901Z,7.6
2023-03-31T11:50:34.920Z,11.2
2023-03-31T11:55:34.904Z,9.6
2023-03-31T12:00:34.907Z,8.2
2023-03-31T12:05:34.958Z,7.2
2023-03-31T12:10:34.922Z,9.9
2023-03-31T12:15:34.925Z,9.5
2023-03-31T12:20:34.919Z,9.8
2023-03-31T12:25:34.909Z,9.6
2023-03-31T12:30:34.933Z,9.3
2023-03-31T12:35:34.987Z,8.7
2023-03-31T12:40:34.925Z,6.8
2023-03-31T12:45:34.927Z,7.1
2023-03-31T12:50:34.929Z,7.5
2023-03-31T12:55:34.935Z,6.3
2023-03-31T13:00:34.948Z,7.5
2023-03-31T13:05:34.942Z,6.6
2023-03-31T13:10:34.987Z,8.1
2023-03-31T13:15:34.961Z,7.5
2023-03-31T13:20:34.948Z,6.5
2023-03-31T13:25:34.946Z,6.8
2023-03-31T13:30:34.946Z,6.3
2023-03-31T13:35:34.953Z,5.8
2023-03-31T13:40:34.949Z,11.0
2023-03-31T13:45:34.986Z,6.2
2023-03-31T13:50:34.953Z,4.8
2023-03-31T13:55:34.952Z,3.7
2023-03-31T14:00:34.948Z,5.0
2023-03-31T14:05:34.971Z,5.4
2023-03-31T14:10:34.996Z,4.7
2023-03-31T14:15:35.070Z,5.5
2023-03-31T14:20:34.954Z,6.4
2023-03-31T14:25:34.957Z,4.6
2023-03-31T14:30:34.982Z,4.5
2023-03-31T14:35:34.960Z,5.8
2023-03-31T14:40:34.976Z,3.1
2023-03-31T14:45:34.972Z,4.0
2023-03-31T14:50:34.986Z,3.1
2023-03-31T15:00:35.199Z,4.1
2023-03-31T15:05:35.122Z,2.4
2023-03-31T15:10:34.983Z,1.6
2023-03-31T15:15:35.387Z,1.6
2023-03-31T15:20:35.280Z,2.1
2023-03-31T15:25:35.015Z,2.6
2023-03-31T15:30:36.311Z,1.8
2023-03-31T15:35:34.988Z,0.8
2023-03-31T15:40:35.054Z,1.5
2023-03-31T15:45:34.983Z,2.3
2023-03-31T15:50:34.999Z,1.5
2023-03-31T15:55:34.986Z,2.3
2023-03-31T16:00:35.089Z,1.3
2023-03-31T16:05:43.783Z,2.7
2023-03-31T16:10:34.995Z,1.9
2023-03-31T16:15:34.996Z,1.3
2023-03-31T16:20:35.420Z,1.2
2023-03-31T16:25:35.029Z,1.3
2023-03-31T16:30:35.000Z,2.4
2023-03-31T16:35:35.007Z,2.0
2023-03-31T16:40:35.026Z,1.8
2023-03-31T16:45:35.015Z,2.3
2023-03-31T16:50:35.293Z,4.1
2023-03-31T16:55:35.019Z,1.4
2023-03-31T17:00:35.018Z,1.2
2023-03-31T17:05:35.009Z,1.5
2023-03-31T17:10:35.013Z,2.4
2023-03-31T17:15:35.241Z,1.8
2023-03-31T17:20:35.271Z,1.7
2023-03-31T17:25:35.098Z,3.4
2023-03-31T17:30:35.025Z,1.6
2023-03-31T17:35:35.020Z,1.6
2023-03-31T17:40:35.012Z,1.7
2023-03-31T17:45:35.036Z,2.5
2023-03-31T17:50:35.032Z,2.4
2023-03-31T17:55:35.164Z,1.3
2023-03-31T18:00:35.121Z,3.2
2023-03-31T18:05:35.049Z,1.8
2023-03-31T18:10:35.204Z,1.9
2023-03-31T18:15:35.030Z,2.7
2023-03-31T18:20:35.294Z,2.7
2023-03-31T18:25:35.277Z,2.4
2023-03-31T18:30:35.044Z,2.5
2023-03-31T18:35:35.073Z,2.1
2023-03-31T18:40:35.069Z,1.9
2023-03-31T18:45:35.270Z,6.5
2023-03-31T18:50:35.048Z,4.2
2023-03-31T18:55:35.057Z,2.8
2023-03-31T19:00:35.060Z,3.7
2023-03-31T19:05:35.075Z,2.9
2023-03-31T19:10:35.096Z,3.2
2023-03-31T19:15:35.059Z,1.9
2023-03-31T19:20:35.060Z,2.4
2023-03-31T19:25:35.060Z,3.0
2023-03-31T19:30:35.092Z,4.6
2023-03-31T19:35:35.099Z,2.7
2023-03-31T19:40:35.129Z,3.3
2023-03-31T19:45:35.081Z,3.4
2023-03-31T19:50:35.065Z,3.6
2023-03-31T19:55:35.085Z,2.1
2023-03-31T20:00:35.065Z,1.7
2023-03-31T20:05:35.087Z,1.9
2023-03-31T20:10:35.091Z,3.4
2023-03-31T20:15:35.101Z,3.9
2023-03-31T20:20:35.078Z,5.1
2023-03-31T20:25:35.076Z,3.9
2023-03-31T20:30:35.091Z,2.8
2023-03-31T20:35:35.091Z,3.1
2023-03-31T20:40:35.103Z,4.1
2023-03-31T20:45:35.084Z,2.9
2023-03-31T20:50:35.083Z,3.5
2023-03-31T20:55:35.119Z,3.2
2023-03-31T21:00:35.101Z,3.8
2023-03-31T21:05:35.413Z,4.1
2023-03-31T21:10:35.093Z,4.7
2023-03-31T21:15:35.120Z,4.2
2023-03-31T21:25:35.102Z,3.8
2023-03-31T21:30:35.103Z,4.4
2023-03-31T21:35:35.438Z,5.6
2023-03-31T21:40:35.104Z,4.2
2023-03-31T21:45:35.120Z,7.5
2023-03-31T21:50:35.111Z,4.5
2023-03-31T21:55:35.117Z,5.3
2023-03-31T22:00:35.116Z,5.7
2023-03-31T22:05:35.115Z,5.7
2023-03-31T22:10:35.127Z,5.4
2023-03-31T22:15:35.234Z,3.2
2023-03-31T22:20:35.125Z,4.3
2023-03-31T22:25:35.128Z,9.2
2023-03-31T22:35:35.369Z,3.0
2023-03-31T22:40:35.142Z,2.9
2023-03-31T22:45:35.331Z,4.3
2023-03-31T22:50:35.170Z,4.5
2023-03-31T22:55:35.221Z,5.3
2023-03-31T23:00:35.130Z,4.9
2023-03-31T23:05:35.234Z,4.1
2023-03-31T23:10:35.137Z,4.4
2023-03-31T23:15:35.135Z,4.1
2023-03-31T23:20:35.128Z,3.1
2023-03-31T23:25:35.134Z,2.5
2023-03-31T23:40:35.138Z,5.4
2023-03-31T23:45:35.140Z,2.6
2023-03-31T23:50:35.133Z,1.9
2023-03-31T23:55:35.353Z,4.2
